sensor_id;sensor_type;location;lat;lon;timestamp;temperature;humidity
15341;DHT22;7770;52.158;5.372;2022-08-25T00:02:11;21.70;99.90
15341;DHT22;7770;52.158;5.372;2022-08-25T00:04:57;21.60;99.90
15341;DHT22;7770;52.158;5.372;2022-08-25T00:07:43;21.60;99.90
15341;DHT22;7770;52.158;5.372;2022-08-25T00:10:29;21.50;99.90
15341;DHT22;7770;52.158;5.372;2022-08-25T00:13:15;21.50;99.90
15341;DHT22;7770;52.158;5.372;2022-08-25T00:16:02;21.50;99.90
15341;DHT22;7770;52.158;5.372;2022-08-25T00:18:51;21.50;99.90
15341;DHT22;7770;52.158;5.372;2022-08-25T00:21:42;21.50;99.90
15341;DHT22;7770;52.158;5.372;2022-08-25T00:24:29;21.50;99.90
15341;DHT22;7770;52.158;5.372;2022-08-25T00:27:15;21.50;99.90
15341;DHT22;7770;52.158;5.372;2022-08-25T00:30:03;21.40;99.90
15341;DHT22;7770;52.158;5.372;2022-08-25T00:32:50;21.50;99.90
15341;DHT22;7770;52.158;5.372;2022-08-25T00:35:36;21.50;99.90
15341;DHT22;7770;52.158;5.372;2022-08-25T00:38:23;21.40;99.90
15341;DHT22;7770;52.158;5.372;2022-08-25T00:41:13;21.30;99.90
15341;DHT22;7770;52.158;5.372;2022-08-25T00:44:05;21.30;99.90
15341;DHT22;7770;52.158;5.372;2022-08-25T00:46:57;21.30;99.90
15341;DHT22;7770;52.158;5.372;2022-08-25T00:49:48;21.30;99.90
15341;DHT22;7770;52.158;5.372;2022-08-25T00:52:38;21.20;99.90
15341;DHT22;7770;52.158;5.372;2022-08-25T00:55:33;21.20;99.90
15341;DHT22;7770;52.158;5.372;2022-08-25T00:58:23;21.10;99.90
15341;DHT22;7770;52.158;5.372;2022-08-25T01:01:11;21.10;99.90
15341;DHT22;7770;52.158;5.372;2022-08-25T01:03:57;21.00;99.90
15341;DHT22;7770;52.158;5.372;2022-08-25T01:06:44;21.00;99.90
15341;DHT22;7770;52.158;5.372;2022-08-25T01:09:31;21.00;99.90
15341;DHT22;7770;52.158;5.372;2022-08-25T01:12:17;21.00;99.90
15341;DHT22;7770;52.158;5.372;2022-08-25T01:15:05;20.90;99.90
15341;DHT22;7770;52.158;5.372;2022-08-25T01:17:56;21.00;99.90
15341;DHT22;7770;52.158;5.372;2022-08-25T01:20:42;21.00;99.90
15341;DHT22;7770;52.158;5.372;2022-08-25T01:23:31;20.90;99.90
15341;DHT22;7770;52.158;5.372;2022-08-25T01:26:26;20.90;99.90
15341;DHT22;7770;52.158;5.372;2022-08-25T01:29:15;20.80;99.90
15341;DHT22;7770;52.158;5.372;2022-08-25T01:32:10;20.80;99.90
15341;DHT22;7770;52.158;5.372;2022-08-25T01:34:57;20.90;99.90
15341;DHT22;7770;52.158;5.372;2022-08-25T01:37:43;20.90;99.90
15341;DHT22;7770;52.158;5.372;2022-08-25T01:40:30;20.90;99.90
15341;DHT22;7770;52.158;5.372;2022-08-25T01:43:37;20.90;99.90
15341;DHT22;7770;52.158;5.372;2022-08-25T01:46:23;21.00;99.90
15341;DHT22;7770;52.158;5.372;2022-08-25T01:49:10;21.00;99.90
15341;DHT22;7770;52.158;5.372;2022-08-25T01:52:00;21.00;99.90
15341;DHT22;7770;52.158;5.372;2022-08-25T01:54:59;21.00;99.90
15341;DHT22;7770;52.158;5.372;2022-08-25T01:57:45;20.90;99.90
15341;DHT22;7770;52.158;5.372;2022-08-25T02:00:32;21.00;99.90
15341;DHT22;7770;52.158;5.372;2022-08-25T02:03:18;21.00;99.90
15341;DHT22;7770;52.158;5.372;2022-08-25T02:06:05;21.00;99.90
15341;DHT22;7770;52.158;5.372;2022-08-25T02:08:53;21.00;99.90
15341;DHT22;7770;52.158;5.372;2022-08-25T02:11:44;20.90;99.90
15341;DHT22;7770;52.158;5.372;2022-08-25T02:14:31;20.90;99.90
15341;DHT22;7770;52.158;5.372;2022-08-25T02:17:17;21.00;99.90
15341;DHT22;7770;52.158;5.372;2022-08-25T02:20:05;21.00;99.90
15341;DHT22;7770;52.158;5.372;2022-08-25T02:22:55;21.10;99.90
15341;DHT22;7770;52.158;5.372;2022-08-25T02:25:41;21.10;99.90
15341;DHT22;7770;52.158;5.372;2022-08-25T02:28:27;21.10;99.90
15341;DHT22;7770;52.158;5.372;2022-08-25T02:31:15;21.20;99.90
15341;DHT22;7770;52.158;5.372;2022-08-25T02:34:01;21.20;99.90
15341;DHT22;7770;52.158;5.372;2022-08-25T02:36:48;21.20;99.90
15341;DHT22;7770;52.158;5.372;2022-08-25T02:39:34;21.20;99.90
15341;DHT22;7770;52.158;5.372;2022-08-25T02:42:20;21.20;99.90
15341;DHT22;7770;52.158;5.372;2022-08-25T02:45:06;21.20;99.90
15341;DHT22;7770;52.158;5.372;2022-08-25T02:47:53;21.20;99.90
15341;DHT22;7770;52.158;5.372;2022-08-25T02:50:39;21.20;99.90
15341;DHT22;7770;52.158;5.372;2022-08-25T02:53:27;21.20;99.90
15341;DHT22;7770;52.158;5.372;2022-08-25T02:56:15;21.20;99.90
15341;DHT22;7770;52.158;5.372;2022-08-25T02:59:03;21.30;99.90
15341;DHT22;7770;52.158;5.372;2022-08-25T03:01:50;21.30;99.90
15341;DHT22;7770;52.158;5.372;2022-08-25T03:04:36;21.30;99.90
15341;DHT22;7770;52.158;5.372;2022-08-25T03:07:22;21.30;99.90
15341;DHT22;7770;52.158;5.372;2022-08-25T03:10:11;21.40;99.90
15341;DHT22;7770;52.158;5.372;2022-08-25T03:12:59;21.40;99.90
15341;DHT22;7770;52.158;5.372;2022-08-25T03:15:45;21.50;99.90
15341;DHT22;7770;52.158;5.372;2022-08-25T03:18:31;21.50;99.90
15341;DHT22;7770;52.158;5.372;2022-08-25T03:21:17;21.50;99.90
15341;DHT22;7770;52.158;5.372;2022-08-25T03:24:04;21.50;99.90
15341;DHT22;7770;52.158;5.372;2022-08-25T03:26:51;21.50;99.90
15341;DHT22;7770;52.158;5.372;2022-08-25T03:29:40;21.40;99.90
15341;DHT22;7770;52.158;5.372;2022-08-25T03:32:27;21.40;99.90
15341;DHT22;7770;52.158;5.372;2022-08-25T03:35:15;21.40;99.90
15341;DHT22;7770;52.158;5.372;2022-08-25T03:38:03;21.30;99.90
15341;DHT22;7770;52.158;5.372;2022-08-25T03:40:50;21.30;99.90
15341;DHT22;7770;52.158;5.372;2022-08-25T03:43:36;21.30;99.90
15341;DHT22;7770;52.158;5.372;2022-08-25T03:46:25;21.30;99.90
15341;DHT22;7770;52.158;5.372;2022-08-25T03:49:17;21.20;99.90
15341;DHT22;7770;52.158;5.372;2022-08-25T03:52:04;21.20;99.90
15341;DHT22;7770;52.158;5.372;2022-08-25T03:54:51;21.10;99.90
15341;DHT22;7770;52.158;5.372;2022-08-25T03:57:37;21.00;99.90
15341;DHT22;7770;52.158;5.372;2022-08-25T04:00:23;21.00;99.90
15341;DHT22;7770;52.158;5.372;2022-08-25T04:03:09;20.90;99.90
15341;DHT22;7770;52.158;5.372;2022-08-25T04:06:00;20.90;99.90
15341;DHT22;7770;52.158;5.372;2022-08-25T04:08:47;20.90;99.90
15341;DHT22;7770;52.158;5.372;2022-08-25T04:11:33;20.90;99.90
15341;DHT22;7770;52.158;5.372;2022-08-25T04:14:20;20.80;99.90
15341;DHT22;7770;52.158;5.372;2022-08-25T04:17:08;20.80;99.90
15341;DHT22;7770;52.158;5.372;2022-08-25T04:19:54;20.80;99.90
15341;DHT22;7770;52.158;5.372;2022-08-25T04:22:40;20.70;99.90
15341;DHT22;7770;52.158;5.372;2022-08-25T04:25:26;20.70;99.90
15341;DHT22;7770;52.158;5.372;2022-08-25T04:28:12;20.70;99.90
15341;DHT22;7770;52.158;5.372;2022-08-25T04:30:58;20.70;99.90
15341;DHT22;7770;52.158;5.372;2022-08-25T04:33:44;20.70;99.90
15341;DHT22;7770;52.158;5.372;2022-08-25T04:36:35;20.70;99.90
15341;DHT22;7770;52.158;5.372;2022-08-25T04:39:21;20.70;99.90
15341;DHT22;7770;52.158;5.372;2022-08-25T04:42:08;20.60;99.90
15341;DHT22;7770;52.158;5.372;2022-08-25T04:44:54;20.60;99.90
15341;DHT22;7770;52.158;5.372;2022-08-25T04:47:40;20.50;99.90
15341;DHT22;7770;52.158;5.372;2022-08-25T04:50:26;20.60;99.90
15341;DHT22;7770;52.158;5.372;2022-08-25T04:53:13;20.60;99.90
15341;DHT22;7770;52.158;5.372;2022-08-25T04:55:59;20.60;99.90
15341;DHT22;7770;52.158;5.372;2022-08-25T04:58:45;20.60;99.90
15341;DHT22;7770;52.158;5.372;2022-08-25T05:01:33;20.60;99.90
15341;DHT22;7770;52.158;5.372;2022-08-25T05:04:20;20.60;99.90
15341;DHT22;7770;52.158;5.372;2022-08-25T05:07:06;20.60;99.90
15341;DHT22;7770;52.158;5.372;2022-08-25T05:09:52;20.70;99.90
15341;DHT22;7770;52.158;5.372;2022-08-25T05:12:38;20.70;99.90
15341;DHT22;7770;52.158;5.372;2022-08-25T05:15:25;20.70;99.90
15341;DHT22;7770;52.158;5.372;2022-08-25T05:18:31;20.70;99.90
15341;DHT22;7770;52.158;5.372;2022-08-25T05:21:24;20.80;99.90
15341;DHT22;7770;52.158;5.372;2022-08-25T05:24:11;20.90;99.90
15341;DHT22;7770;52.158;5.372;2022-08-25T05:26:57;20.90;99.90
15341;DHT22;7770;52.158;5.372;2022-08-25T05:29:43;21.00;99.90
15341;DHT22;7770;52.158;5.372;2022-08-25T05:32:29;21.10;99.90
15341;DHT22;7770;52.158;5.372;2022-08-25T05:35:15;21.20;99.90
15341;DHT22;7770;52.158;5.372;2022-08-25T05:38:03;21.30;99.90
15341;DHT22;7770;52.158;5.372;2022-08-25T05:40:57;21.40;99.90
15341;DHT22;7770;52.158;5.372;2022-08-25T05:43:45;21.60;99.90
15341;DHT22;7770;52.158;5.372;2022-08-25T05:46:33;21.80;99.90
15341;DHT22;7770;52.158;5.372;2022-08-25T05:49:19;22.00;99.90
15341;DHT22;7770;52.158;5.372;2022-08-25T05:52:05;22.20;99.90
15341;DHT22;7770;52.158;5.372;2022-08-25T05:54:51;22.30;99.90
15341;DHT22;7770;52.158;5.372;2022-08-25T05:57:37;22.40;99.90
15341;DHT22;7770;52.158;5.372;2022-08-25T06:00:23;22.30;99.90
15341;DHT22;7770;52.158;5.372;2022-08-25T06:03:09;22.30;99.90
15341;DHT22;7770;52.158;5.372;2022-08-25T06:06:05;22.30;99.90
15341;DHT22;7770;52.158;5.372;2022-08-25T06:08:51;22.40;99.90
15341;DHT22;7770;52.158;5.372;2022-08-25T06:11:39;22.50;99.90
15341;DHT22;7770;52.158;5.372;2022-08-25T06:14:25;22.40;99.90
15341;DHT22;7770;52.158;5.372;2022-08-25T06:17:12;22.50;99.90
15341;DHT22;7770;52.158;5.372;2022-08-25T06:19:58;22.50;99.90
15341;DHT22;7770;52.158;5.372;2022-08-25T06:22:45;22.50;99.90
15341;DHT22;7770;52.158;5.372;2022-08-25T06:25:31;22.60;99.90
15341;DHT22;7770;52.158;5.372;2022-08-25T06:28:19;22.80;99.90
15341;DHT22;7770;52.158;5.372;2022-08-25T06:31:05;22.90;99.90
15341;DHT22;7770;52.158;5.372;2022-08-25T06:33:52;22.90;99.90
15341;DHT22;7770;52.158;5.372;2022-08-25T06:36:38;22.90;99.90
15341;DHT22;7770;52.158;5.372;2022-08-25T06:39:25;22.90;99.90
15341;DHT22;7770;52.158;5.372;2022-08-25T06:42:11;22.90;99.90
15341;DHT22;7770;52.158;5.372;2022-08-25T06:44:57;23.00;99.90
15341;DHT22;7770;52.158;5.372;2022-08-25T06:47:43;23.10;99.90
15341;DHT22;7770;52.158;5.372;2022-08-25T06:50:29;23.30;99.90
15341;DHT22;7770;52.158;5.372;2022-08-25T06:53:15;23.40;99.90
15341;DHT22;7770;52.158;5.372;2022-08-25T06:56:01;23.20;99.90
15341;DHT22;7770;52.158;5.372;2022-08-25T06:58:49;23.20;99.90
15341;DHT22;7770;52.158;5.372;2022-08-25T07:01:35;23.30;99.90
15341;DHT22;7770;52.158;5.372;2022-08-25T07:04:21;23.40;99.90
15341;DHT22;7770;52.158;5.372;2022-08-25T07:07:07;23.60;99.90
15341;DHT22;7770;52.158;5.372;2022-08-25T07:09:53;23.80;99.90
15341;DHT22;7770;52.158;5.372;2022-08-25T07:12:39;24.00;99.90
15341;DHT22;7770;52.158;5.372;2022-08-25T07:15:25;24.10;99.90
15341;DHT22;7770;52.158;5.372;2022-08-25T07:18:11;24.10;99.90
15341;DHT22;7770;52.158;5.372;2022-08-25T07:20:57;24.30;99.90
15341;DHT22;7770;52.158;5.372;2022-08-25T07:23:43;24.50;99.90
15341;DHT22;7770;52.158;5.372;2022-08-25T07:26:31;24.60;99.90
15341;DHT22;7770;52.158;5.372;2022-08-25T07:29:22;24.80;99.90
15341;DHT22;7770;52.158;5.372;2022-08-25T07:32:09;25.00;99.90
15341;DHT22;7770;52.158;5.372;2022-08-25T07:34:55;25.30;99.90
15341;DHT22;7770;52.158;5.372;2022-08-25T07:37:59;26.70;99.90
15341;DHT22;7770;52.158;5.372;2022-08-25T07:40:46;27.60;99.90
15341;DHT22;7770;52.158;5.372;2022-08-25T07:43:39;27.90;99.90
15341;DHT22;7770;52.158;5.372;2022-08-25T07:46:26;27.50;99.90
15341;DHT22;7770;52.158;5.372;2022-08-25T07:49:12;26.90;99.90
15341;DHT22;7770;52.158;5.372;2022-08-25T07:51:59;26.80;99.90
15341;DHT22;7770;52.158;5.372;2022-08-25T07:54:45;27.00;99.90
15341;DHT22;7770;52.158;5.372;2022-08-25T07:57:31;27.00;99.90
15341;DHT22;7770;52.158;5.372;2022-08-25T08:00:17;27.10;99.90
15341;DHT22;7770;52.158;5.372;2022-08-25T08:03:05;27.20;99.90
15341;DHT22;7770;52.158;5.372;2022-08-25T08:05:52;27.20;99.90
15341;DHT22;7770;52.158;5.372;2022-08-25T08:08:43;27.20;99.90
15341;DHT22;7770;52.158;5.372;2022-08-25T08:11:32;28.00;99.90
15341;DHT22;7770;52.158;5.372;2022-08-25T08:14:19;29.20;99.80
15341;DHT22;7770;52.158;5.372;2022-08-25T08:17:07;30.60;98.00
15341;DHT22;7770;52.158;5.372;2022-08-25T08:19:54;31.40;97.10
15341;DHT22;7770;52.158;5.372;2022-08-25T08:22:41;32.40;96.00
15341;DHT22;7770;52.158;5.372;2022-08-25T08:25:28;32.80;95.40
15341;DHT22;7770;52.158;5.372;2022-08-25T08:28:14;32.80;94.70
15341;DHT22;7770;52.158;5.372;2022-08-25T08:31:01;33.20;94.50
15341;DHT22;7770;52.158;5.372;2022-08-25T08:33:49;33.80;93.60
15341;DHT22;7770;52.158;5.372;2022-08-25T08:36:35;33.60;93.00
15341;DHT22;7770;52.158;5.372;2022-08-25T08:39:21;35.10;92.90
15341;DHT22;7770;52.158;5.372;2022-08-25T08:48:34;35.50;92.20
15341;DHT22;7770;52.158;5.372;2022-08-25T08:51:32;37.10;91.00
15341;DHT22;7770;52.158;5.372;2022-08-25T08:54:23;37.50;90.90
15341;DHT22;7770;52.158;5.372;2022-08-25T08:57:14;38.10;90.30
15341;DHT22;7770;52.158;5.372;2022-08-25T09:00:05;37.30;90.60
15341;DHT22;7770;52.158;5.372;2022-08-25T09:03:07;37.30;90.40
15341;DHT22;7770;52.158;5.372;2022-08-25T09:06:00;36.50;91.10
15341;DHT22;7770;52.158;5.372;2022-08-25T09:08:48;36.00;91.30
15341;DHT22;7770;52.158;5.372;2022-08-25T09:19:14;38.20;90.50
15341;DHT22;7770;52.158;5.372;2022-08-25T09:32:54;40.00;85.90
15341;DHT22;7770;52.158;5.372;2022-08-25T09:35:49;40.10;84.80
15341;DHT22;7770;52.158;5.372;2022-08-25T09:38:37;40.00;85.40
15341;DHT22;7770;52.158;5.372;2022-08-25T09:41:44;39.80;84.30
15341;DHT22;7770;52.158;5.372;2022-08-25T09:44:33;38.80;85.60
15341;DHT22;7770;52.158;5.372;2022-08-25T09:47:25;38.90;85.30
15341;DHT22;7770;52.158;5.372;2022-08-25T09:50:17;39.30;85.30
15341;DHT22;7770;52.158;5.372;2022-08-25T09:53:15;39.80;84.50
15341;DHT22;7770;52.158;5.372;2022-08-25T09:56:03;39.70;83.40
15341;DHT22;7770;52.158;5.372;2022-08-25T09:58:53;40.80;82.50
15341;DHT22;7770;52.158;5.372;2022-08-25T10:01:54;41.70;82.10
15341;DHT22;7770;52.158;5.372;2022-08-25T10:04:42;39.30;83.30
15341;DHT22;7770;52.158;5.372;2022-08-25T10:07:35;39.20;83.90
15341;DHT22;7770;52.158;5.372;2022-08-25T10:13:21;40.10;84.20
15341;DHT22;7770;52.158;5.372;2022-08-25T10:16:27;40.30;84.40
15341;DHT22;7770;52.158;5.372;2022-08-25T10:22:19;40.40;81.90
15341;DHT22;7770;52.158;5.372;2022-08-25T10:25:11;40.00;81.30
15341;DHT22;7770;52.158;5.372;2022-08-25T10:28:32;39.90;82.70
15341;DHT22;7770;52.158;5.372;2022-08-25T10:31:47;40.70;81.90
15341;DHT22;7770;52.158;5.372;2022-08-25T10:34:48;40.50;82.50
15341;DHT22;7770;52.158;5.372;2022-08-25T10:44:42;40.50;80.80
15341;DHT22;7770;52.158;5.372;2022-08-25T10:48:21;40.90;81.50
15341;DHT22;7770;52.158;5.372;2022-08-25T11:04:48;42.10;79.80
15341;DHT22;7770;52.158;5.372;2022-08-25T11:07:57;42.40;77.70
15341;DHT22;7770;52.158;5.372;2022-08-25T11:17:46;41.80;77.20
15341;DHT22;7770;52.158;5.372;2022-08-25T11:20:44;39.80;78.20
15341;DHT22;7770;52.158;5.372;2022-08-25T11:23:43;39.60;79.20
15341;DHT22;7770;52.158;5.372;2022-08-25T11:26:34;39.30;78.60
15341;DHT22;7770;52.158;5.372;2022-08-25T11:29:29;39.00;78.80
15341;DHT22;7770;52.158;5.372;2022-08-25T11:32:19;40.20;78.50
15341;DHT22;7770;52.158;5.372;2022-08-25T11:35:11;39.90;76.30
15341;DHT22;7770;52.158;5.372;2022-08-25T11:38:29;39.30;76.60
15341;DHT22;7770;52.158;5.372;2022-08-25T11:41:56;38.40;77.10
15341;DHT22;7770;52.158;5.372;2022-08-25T11:48:29;40.30;76.60
15341;DHT22;7770;52.158;5.372;2022-08-25T11:51:32;39.70;76.40
15341;DHT22;7770;52.158;5.372;2022-08-25T11:54:34;39.30;77.60
15341;DHT22;7770;52.158;5.372;2022-08-25T11:57:24;38.60;77.80
15341;DHT22;7770;52.158;5.372;2022-08-25T12:00:40;38.80;77.40
15341;DHT22;7770;52.158;5.372;2022-08-25T12:06:26;41.00;74.70
15341;DHT22;7770;52.158;5.372;2022-08-25T12:09:17;39.20;76.60
15341;DHT22;7770;52.158;5.372;2022-08-25T12:12:27;38.70;77.10
15341;DHT22;7770;52.158;5.372;2022-08-25T12:21:13;36.80;77.70
15341;DHT22;7770;52.158;5.372;2022-08-25T12:26:59;35.20;79.80
15341;DHT22;7770;52.158;5.372;2022-08-25T12:30:17;35.00;81.50
15341;DHT22;7770;52.158;5.372;2022-08-25T12:36:24;35.40;80.20
15341;DHT22;7770;52.158;5.372;2022-08-25T12:39:19;36.10;80.90
15341;DHT22;7770;52.158;5.372;2022-08-25T12:42:37;36.10;79.30
15341;DHT22;7770;52.158;5.372;2022-08-25T12:45:39;36.10;80.80
15341;DHT22;7770;52.158;5.372;2022-08-25T12:51:20;35.80;80.20
15341;DHT22;7770;52.158;5.372;2022-08-25T12:54:31;35.40;79.50
15341;DHT22;7770;52.158;5.372;2022-08-25T13:00:54;35.10;80.00
15341;DHT22;7770;52.158;5.372;2022-08-25T13:10:39;34.80;82.20
15341;DHT22;7770;52.158;5.372;2022-08-25T13:13:48;35.00;81.50
15341;DHT22;7770;52.158;5.372;2022-08-25T13:16:37;34.80;81.30
15341;DHT22;7770;52.158;5.372;2022-08-25T13:19:25;34.50;81.50
15341;DHT22;7770;52.158;5.372;2022-08-25T13:22:13;34.00;82.30
15341;DHT22;7770;52.158;5.372;2022-08-25T13:25:02;33.80;82.10
15341;DHT22;7770;52.158;5.372;2022-08-25T13:27:54;33.70;82.40
15341;DHT22;7770;52.158;5.372;2022-08-25T13:30:41;33.90;82.50
15341;DHT22;7770;52.158;5.372;2022-08-25T13:33:28;34.20;82.30
15341;DHT22;7770;52.158;5.372;2022-08-25T13:36:16;34.20;82.90
15341;DHT22;7770;52.158;5.372;2022-08-25T13:39:25;34.10;81.60
15341;DHT22;7770;52.158;5.372;2022-08-25T13:42:16;33.60;82.10
15341;DHT22;7770;52.158;5.372;2022-08-25T13:45:06;33.70;82.40
15341;DHT22;7770;52.158;5.372;2022-08-25T13:47:53;33.60;81.90
15341;DHT22;7770;52.158;5.372;2022-08-25T13:50:41;33.50;82.00
15341;DHT22;7770;52.158;5.372;2022-08-25T13:53:28;33.50;81.90
15341;DHT22;7770;52.158;5.372;2022-08-25T13:56:26;33.50;81.60
15341;DHT22;7770;52.158;5.372;2022-08-25T13:59:22;33.30;81.70
15341;DHT22;7770;52.158;5.372;2022-08-25T14:02:11;33.30;81.50
15341;DHT22;7770;52.158;5.372;2022-08-25T14:04:58;33.00;81.20
15341;DHT22;7770;52.158;5.372;2022-08-25T14:07:54;33.10;81.80
15341;DHT22;7770;52.158;5.372;2022-08-25T14:10:43;33.00;81.50
15341;DHT22;7770;52.158;5.372;2022-08-25T14:13:30;33.00;81.70
15341;DHT22;7770;52.158;5.372;2022-08-25T14:16:23;32.80;81.60
15341;DHT22;7770;52.158;5.372;2022-08-25T14:19:14;32.90;82.00
15341;DHT22;7770;52.158;5.372;2022-08-25T14:22:02;32.80;82.50
15341;DHT22;7770;52.158;5.372;2022-08-25T14:24:51;33.00;82.00
15341;DHT22;7770;52.158;5.372;2022-08-25T14:27:41;33.00;81.10
15341;DHT22;7770;52.158;5.372;2022-08-25T14:30:50;32.80;80.80
15341;DHT22;7770;52.158;5.372;2022-08-25T14:33:42;32.70;82.00
15341;DHT22;7770;52.158;5.372;2022-08-25T14:36:35;32.80;82.70
15341;DHT22;7770;52.158;5.372;2022-08-25T14:39:21;32.70;83.30
15341;DHT22;7770;52.158;5.372;2022-08-25T14:42:07;32.40;82.60
15341;DHT22;7770;52.158;5.372;2022-08-25T14:44:54;32.50;83.60
15341;DHT22;7770;52.158;5.372;2022-08-25T14:47:40;32.70;82.20
15341;DHT22;7770;52.158;5.372;2022-08-25T14:50:27;32.60;82.60
15341;DHT22;7770;52.158;5.372;2022-08-25T14:53:13;32.50;83.20
15341;DHT22;7770;52.158;5.372;2022-08-25T14:55:59;32.30;83.10
15341;DHT22;7770;52.158;5.372;2022-08-25T14:58:45;32.30;84.00
15341;DHT22;7770;52.158;5.372;2022-08-25T15:01:31;32.30;84.10
15341;DHT22;7770;52.158;5.372;2022-08-25T15:04:21;32.40;84.10
15341;DHT22;7770;52.158;5.372;2022-08-25T15:07:11;32.40;82.90
15341;DHT22;7770;52.158;5.372;2022-08-25T15:10:16;32.20;83.30
15341;DHT22;7770;52.158;5.372;2022-08-25T15:13:03;32.20;83.40
15341;DHT22;7770;52.158;5.372;2022-08-25T15:15:50;32.30;83.70
15341;DHT22;7770;52.158;5.372;2022-08-25T15:18:36;32.60;82.80
15341;DHT22;7770;52.158;5.372;2022-08-25T15:21:22;32.70;82.70
15341;DHT22;7770;52.158;5.372;2022-08-25T15:24:10;32.70;83.20
15341;DHT22;7770;52.158;5.372;2022-08-25T15:26:59;32.60;82.20
15341;DHT22;7770;52.158;5.372;2022-08-25T15:29:46;32.70;83.20
15341;DHT22;7770;52.158;5.372;2022-08-25T15:32:32;32.60;83.70
15341;DHT22;7770;52.158;5.372;2022-08-25T15:35:18;32.30;83.30
15341;DHT22;7770;52.158;5.372;2022-08-25T15:38:04;32.10;83.60
15341;DHT22;7770;52.158;5.372;2022-08-25T15:40:50;32.00;83.60
15341;DHT22;7770;52.158;5.372;2022-08-25T15:43:36;32.00;82.60
15341;DHT22;7770;52.158;5.372;2022-08-25T15:46:25;32.10;83.30
15341;DHT22;7770;52.158;5.372;2022-08-25T15:49:14;32.20;83.30
15341;DHT22;7770;52.158;5.372;2022-08-25T15:52:00;32.30;83.30
15341;DHT22;7770;52.158;5.372;2022-08-25T15:54:47;32.30;84.00
15341;DHT22;7770;52.158;5.372;2022-08-25T15:57:33;32.20;83.10
15341;DHT22;7770;52.158;5.372;2022-08-25T16:00:19;32.30;83.30
15341;DHT22;7770;52.158;5.372;2022-08-25T16:03:05;32.30;83.20
15341;DHT22;7770;52.158;5.372;2022-08-25T16:05:52;32.30;83.20
15341;DHT22;7770;52.158;5.372;2022-08-25T16:08:38;32.30;83.50
15341;DHT22;7770;52.158;5.372;2022-08-25T16:11:27;32.30;84.10
15341;DHT22;7770;52.158;5.372;2022-08-25T16:14:14;32.30;84.30
15341;DHT22;7770;52.158;5.372;2022-08-25T16:17:00;32.30;84.80
15341;DHT22;7770;52.158;5.372;2022-08-25T16:19:46;32.30;83.30
15341;DHT22;7770;52.158;5.372;2022-08-25T16:22:32;32.20;84.00
15341;DHT22;7770;52.158;5.372;2022-08-25T16:25:18;32.20;84.10
15341;DHT22;7770;52.158;5.372;2022-08-25T16:28:04;32.20;83.50
15341;DHT22;7770;52.158;5.372;2022-08-25T16:30:50;32.20;83.90
15341;DHT22;7770;52.158;5.372;2022-08-25T16:33:37;32.20;83.70
15341;DHT22;7770;52.158;5.372;2022-08-25T16:36:24;32.10;84.00
15341;DHT22;7770;52.158;5.372;2022-08-25T16:39:10;32.00;84.20
15341;DHT22;7770;52.158;5.372;2022-08-25T16:41:57;32.00;84.80
15341;DHT22;7770;52.158;5.372;2022-08-25T16:44:43;32.00;85.90
15341;DHT22;7770;52.158;5.372;2022-08-25T16:47:29;32.00;86.10
15341;DHT22;7770;52.158;5.372;2022-08-25T16:50:19;32.10;86.60
15341;DHT22;7770;52.158;5.372;2022-08-25T16:53:05;32.10;86.60
15341;DHT22;7770;52.158;5.372;2022-08-25T16:56:10;31.80;87.80
15341;DHT22;7770;52.158;5.372;2022-08-25T16:58:57;31.70;88.20
15341;DHT22;7770;52.158;5.372;2022-08-25T17:01:44;31.50;88.80
15341;DHT22;7770;52.158;5.372;2022-08-25T17:04:30;31.40;90.70
15341;DHT22;7770;52.158;5.372;2022-08-25T17:07:16;31.20;91.60
15341;DHT22;7770;52.158;5.372;2022-08-25T17:10:06;31.10;92.50
15341;DHT22;7770;52.158;5.372;2022-08-25T17:12:52;30.80;93.10
15341;DHT22;7770;52.158;5.372;2022-08-25T17:15:43;30.70;94.00
15341;DHT22;7770;52.158;5.372;2022-08-25T17:18:31;30.60;94.80
15341;DHT22;7770;52.158;5.372;2022-08-25T17:21:18;30.40;95.40
15341;DHT22;7770;52.158;5.372;2022-08-25T17:24:06;30.20;96.20
15341;DHT22;7770;52.158;5.372;2022-08-25T17:26:53;30.00;96.60
15341;DHT22;7770;52.158;5.372;2022-08-25T17:29:39;29.80;97.20
15341;DHT22;7770;52.158;5.372;2022-08-25T17:32:28;29.60;97.50
15341;DHT22;7770;52.158;5.372;2022-08-25T17:35:13;29.50;97.80
15341;DHT22;7770;52.158;5.372;2022-08-25T17:37:59;29.30;98.00
15341;DHT22;7770;52.158;5.372;2022-08-25T17:40:46;29.20;98.40
15341;DHT22;7770;52.158;5.372;2022-08-25T17:43:35;29.00;98.50
15341;DHT22;7770;52.158;5.372;2022-08-25T17:46:23;28.80;98.80
15341;DHT22;7770;52.158;5.372;2022-08-25T17:49:09;28.60;98.80
15341;DHT22;7770;52.158;5.372;2022-08-25T17:51:55;28.50;99.00
15341;DHT22;7770;52.158;5.372;2022-08-25T17:54:41;28.30;99.40
15341;DHT22;7770;52.158;5.372;2022-08-25T17:57:27;28.20;99.80
15341;DHT22;7770;52.158;5.372;2022-08-25T18:00:14;28.10;99.90
15341;DHT22;7770;52.158;5.372;2022-08-25T18:03:03;27.90;99.90
15341;DHT22;7770;52.158;5.372;2022-08-25T18:05:51;27.80;99.90
15341;DHT22;7770;52.158;5.372;2022-08-25T18:08:37;27.60;99.90
15341;DHT22;7770;52.158;5.372;2022-08-25T18:11:23;27.50;99.90
15341;DHT22;7770;52.158;5.372;2022-08-25T18:14:10;27.40;99.90
15341;DHT22;7770;52.158;5.372;2022-08-25T18:16:56;27.30;99.90
15341;DHT22;7770;52.158;5.372;2022-08-25T18:19:42;27.10;99.90
15341;DHT22;7770;52.158;5.372;2022-08-25T18:22:28;27.00;99.90
15341;DHT22;7770;52.158;5.372;2022-08-25T18:25:14;26.90;99.90
15341;DHT22;7770;52.158;5.372;2022-08-25T18:28:00;26.80;99.90
15341;DHT22;7770;52.158;5.372;2022-08-25T18:30:46;26.60;99.90
15341;DHT22;7770;52.158;5.372;2022-08-25T18:33:33;26.50;99.90
15341;DHT22;7770;52.158;5.372;2022-08-25T18:36:19;26.40;99.90
15341;DHT22;7770;52.158;5.372;2022-08-25T18:39:05;26.20;99.90
15341;DHT22;7770;52.158;5.372;2022-08-25T18:42:10;26.10;99.90
15341;DHT22;7770;52.158;5.372;2022-08-25T18:44:56;26.00;99.90
15341;DHT22;7770;52.158;5.372;2022-08-25T18:47:42;25.90;99.90
15341;DHT22;7770;52.158;5.372;2022-08-25T18:50:31;25.80;99.90
15341;DHT22;7770;52.158;5.372;2022-08-25T18:53:20;25.80;99.90
15341;DHT22;7770;52.158;5.372;2022-08-25T18:56:08;25.70;99.90
15341;DHT22;7770;52.158;5.372;2022-08-25T18:58:55;25.50;99.90
15341;DHT22;7770;52.158;5.372;2022-08-25T19:01:42;25.40;99.90
15341;DHT22;7770;52.158;5.372;2022-08-25T19:04:29;25.30;99.90
15341;DHT22;7770;52.158;5.372;2022-08-25T19:07:16;25.20;99.90
15341;DHT22;7770;52.158;5.372;2022-08-25T19:10:03;25.10;99.90
15341;DHT22;7770;52.158;5.372;2022-08-25T19:12:50;24.90;99.90
15341;DHT22;7770;52.158;5.372;2022-08-25T19:15:39;24.80;99.90
15341;DHT22;7770;52.158;5.372;2022-08-25T19:18:25;24.70;99.90
15341;DHT22;7770;52.158;5.372;2022-08-25T19:21:12;24.60;99.90
15341;DHT22;7770;52.158;5.372;2022-08-25T19:23:58;24.50;99.90
15341;DHT22;7770;52.158;5.372;2022-08-25T19:26:44;24.40;99.90
15341;DHT22;7770;52.158;5.372;2022-08-25T19:29:31;24.30;99.90
15341;DHT22;7770;52.158;5.372;2022-08-25T19:32:17;24.20;99.90
15341;DHT22;7770;52.158;5.372;2022-08-25T19:35:08;24.20;99.90
15341;DHT22;7770;52.158;5.372;2022-08-25T19:37:57;24.10;99.90